Time;durP1;ratioP1;P1;durP2;ratioP2;P2;SDS_P1;SDS_P2;PMS_P1;PMS_P2;Temp;Humidity;BMP_temperature;BMP_pressure;BME280_temperature;BME280_humidity;BME280_pressure;Samples;Min_cycle;Max_cycle;Signal;HPM_P1;HPM_P2
2021/07/23 00:07:02;;;;;;;11;7.9;;;;;;;16.32;100;98862.7;;;;
2021/07/23 00:17:02;;;;;;;14.6;8.3;;;;;;;16.19;100;98847.5;;;;
2021/07/23 00:27:02;;;;;;;10.6;7.2;;;;;;;16.36;100;98850.81;;;;
2021/07/23 00:37:01;;;;;;;11.2;7.8;;;;;;;16.49;100;98865.21;;;;
2021/07/23 00:47:01;;;;;;;9.9;7.9;;;;;;;16.4;100;98857.17;;;;
2021/07/23 00:57:00;;;;;;;12.2;7.8;;;;;;;16.43;100;98848.33;;;;
2021/07/23 01:07:00;;;;;;;9.5;7.5;;;;;;;16.38;100;98850.48;;;;
2021/07/23 01:17:00;;;;;;;11.8;8.2;;;;;;;16.32;100;98849.1;;;;
2021/07/23 01:26:59;;;;;;;12.7;7.2;;;;;;;16.36;100;98839.94;;;;
2021/07/23 01:36:59;;;;;;;10.7;7.5;;;;;;;16.41;100;98839.73;;;;
2021/07/23 01:46:58;;;;;;;9.5;8;;;;;;;16.51;100;98838.48;;;;
2021/07/23 01:56:58;;;;;;;10.3;6.8;;;;;;;16.41;100;98834.28;;;;
2021/07/23 02:06:58;;;;;;;9;6.6;;;;;;;16.44;100;98836.33;;;;
2021/07/23 02:16:57;;;;;;;10.2;7.3;;;;;;;16.28;100;98829.95;;;;
2021/07/23 02:26:57;;;;;;;13.1;7.1;;;;;;;16.34;100;98822.38;;;;
2021/07/23 02:36:57;;;;;;;11.8;7.7;;;;;;;16.37;100;98821.69;;;;
2021/07/23 02:46:56;;;;;;;10.7;7.9;;;;;;;16.42;100;98824.17;;;;
2021/07/23 02:56:56;;;;;;;10.8;7.9;;;;;;;16.5;100;98815.11;;;;
2021/07/23 03:06:56;;;;;;;16.1;9.1;;;;;;;16.31;100;98804.02;;;;
2021/07/23 03:16:55;;;;;;;13.9;8.1;;;;;;;16.32;100;98811.02;;;;
2021/07/23 03:26:55;;;;;;;9.9;6.9;;;;;;;16.47;100;98811.16;;;;
2021/07/23 03:36:55;;;;;;;11.3;6.5;;;;;;;16.32;100;98809.1;;;;
2021/07/23 03:46:55;;;;;;;11.8;8.2;;;;;;;16.43;100;98801.28;;;;
2021/07/23 03:56:54;;;;;;;11.2;7.4;;;;;;;16.45;100;98818.08;;;;
2021/07/23 04:06:54;;;;;;;11.5;8.3;;;;;;;16.56;100;98816.5;;;;
2021/07/23 04:16:54;;;;;;;11.9;7.4;;;;;;;16.66;100;98809.83;;;;
2021/07/23 04:26:53;;;;;;;11.5;8.4;;;;;;;16.82;100;98816.94;;;;
2021/07/23 04:36:53;;;;;;;13.1;8.2;;;;;;;16.85;100;98804.56;;;;
2021/07/23 04:46:53;;;;;;;10.9;6.9;;;;;;;17.24;100;98809.24;;;;
2021/07/23 04:56:54;;;;;;;11.6;7.5;;;;;;;17.57;100;98796.19;;;;
2021/07/23 05:06:52;;;;;;;10.8;8.1;;;;;;;17.79;100;98783.92;;;;
2021/07/23 05:16:52;;;;;;;10.8;7.7;;;;;;;17.96;100;98783.59;;;;
2021/07/23 05:26:52;;;;;;;13.7;8.8;;;;;;;18.44;100;98781.63;;;;
2021/07/23 05:36:52;;;;;;;11.5;9.7;;;;;;;18.88;100;98785.02;;;;
2021/07/23 05:46:52;;;;;;;15.5;9;;;;;;;19.22;100;98792.38;;;;
2021/07/23 05:56:52;;;;;;;11.2;9.4;;;;;;;19.64;100;98789.73;;;;
2021/07/23 06:06:52;;;;;;;12.4;9.1;;;;;;;20;100;98786.47;;;;
2021/07/23 06:16:55;;;;;;;13.3;10;;;;;;;20.45;100;98782.14;;;;
2021/07/23 06:26:53;;;;;;;16.8;9.1;;;;;;;20.51;100;98786.94;;;;
2021/07/23 06:36:53;;;;;;;20.2;10.2;;;;;;;20.89;100;98801.59;;;;
2021/07/23 06:46:53;;;;;;;15.2;10.7;;;;;;;21.6;100;98795.06;;;;
2021/07/23 06:56:54;;;;;;;17.5;9.5;;;;;;;21.61;100;98791.17;;;;
2021/07/23 07:06:54;;;;;;;15.9;8.3;;;;;;;21.74;100;98788.94;;;;
2021/07/23 07:16:54;;;;;;;12.2;9.6;;;;;;;22.53;100;98789.28;;;;
2021/07/23 07:26:55;;;;;;;15.9;8.9;;;;;;;22.4;100;98794.3;;;;
2021/07/23 07:36:57;;;;;;;11.5;8;;;;;;;22.43;100;98779.8;;;;
2021/07/23 07:46:56;;;;;;;12.7;8;;;;;;;22.78;100;98773.79;;;;
2021/07/23 07:56:57;;;;;;;9.9;7.1;;;;;;;23.03;100;98774.72;;;;
2021/07/23 08:06:57;;;;;;;11.7;7.7;;;;;;;23.4;100;98770.93;;;;
2021/07/23 08:16:58;;;;;;;7.8;6.1;;;;;;;23.45;100;98768.64;;;;
2021/07/23 08:26:58;;;;;;;8.4;5.2;;;;;;;23.73;100;98773.43;;;;
2021/07/23 08:36:59;;;;;;;12.5;4.7;;;;;;;23.54;100;98765.5;;;;
2021/07/23 08:46:59;;;;;;;10;5.6;;;;;;;23.73;100;98773.43;;;;
2021/07/23 08:57:00;;;;;;;9.5;5.6;;;;;;;23.79;100;98768.31;;;;
2021/07/23 09:07:01;;;;;;;7.1;4.3;;;;;;;24.05;96.41992;98760.48;;;;
2021/07/23 09:17:02;;;;;;;8.5;5;;;;;;;24.45;97.21094;98759.33;;;;
2021/07/23 09:27:02;;;;;;;8.1;4.4;;;;;;;24.46;92.42773;98751.86;;;;
2021/07/23 09:37:03;;;;;;;10.4;4.9;;;;;;;24.28;93.1582;98749.11;;;;
2021/07/23 09:47:04;;;;;;;11.2;5.5;;;;;;;24.51;95.16406;98743.97;;;;
2021/07/23 09:57:05;;;;;;;9.7;4.9;;;;;;;24.63;91.33789;98740.02;;;;
2021/07/23 10:07:06;;;;;;;13.2;5.6;;;;;;;24.75;94.41309;98725.8;;;;
2021/07/23 10:17:06;;;;;;;17.3;7.4;;;;;;;24.83;90.76367;98721.88;;;;
2021/07/23 10:27:07;;;;;;;8.9;5.2;;;;;;;25.49;91.31445;98713.69;;;;
2021/07/23 10:37:08;;;;;;;9.2;5.7;;;;;;;25.39;79.36426;98693.26;;;;
2021/07/23 10:47:10;;;;;;;8.2;5.3;;;;;;;25.19;79.34961;98699.67;;;;
2021/07/23 10:57:13;;;;;;;13.6;7.7;;;;;;;25.25;80.62109;98679.54;;;;
2021/07/23 11:07:11;;;;;;;11.2;4.8;;;;;;;25.64;81.23926;98684.85;;;;
2021/07/23 11:17:13;;;;;;;7.4;4.1;;;;;;;25.75;72.35938;98674.52;;;;
2021/07/23 11:27:12;;;;;;;7.2;4.6;;;;;;;26.46;73.6543;98668.36;;;;
2021/07/23 11:37:15;;;;;;;10.3;5.2;;;;;;;26.22;70.11621;98656.37;;;;
2021/07/23 11:47:15;;;;;;;7.9;4.7;;;;;;;26.14;74.12891;98645.75;;;;
2021/07/23 11:57:16;;;;;;;9.9;5.6;;;;;;;26.03;71.15234;98646.64;;;;
2021/07/23 12:07:17;;;;;;;7.9;6;;;;;;;26.42;64.67969;98637.2;;;;
2021/07/23 12:17:18;;;;;;;6.7;4.6;;;;;;;26.61;67.61914;98642.14;;;;
2021/07/23 12:27:19;;;;;;;7.4;4.9;;;;;;;27.26;67.15234;98635.38;;;;
2021/07/23 12:37:20;;;;;;;8.1;6.1;;;;;;;27.57;59.32031;98635.34;;;;
2021/07/23 12:47:21;;;;;;;8.8;5.4;;;;;;;27.77;64.46094;98630.66;;;;
2021/07/23 12:57:22;;;;;;;7.8;5;;;;;;;27.15;61.80859;98615.38;;;;
2021/07/23 13:07:23;;;;;;;9.9;5.6;;;;;;;27.44;62.69434;98615.74;;;;
2021/07/23 13:17:24;;;;;;;7.9;5.4;;;;;;;26.99;61.51563;98612.45;;;;
2021/07/23 13:27:26;;;;;;;8;5;;;;;;;27.78;56.70508;98599;;;;
2021/07/23 13:37:27;;;;;;;7.8;4.8;;;;;;;27.2;62.65137;98601.08;;;;
2021/07/23 13:47:28;;;;;;;9.4;5.8;;;;;;;27.14;67.0625;98596.44;;;;
2021/07/23 13:57:29;;;;;;;8.8;5.2;;;;;;;27.43;66.13086;98592.02;;;;
2021/07/23 14:07:30;;;;;;;12.5;5.6;;;;;;;27.75;67.13086;98594.3;;;;
2021/07/23 14:17:32;;;;;;;7.8;5;;;;;;;27.4;63.62109;98588.11;;;;
2021/07/23 14:27:33;;;;;;;9.9;5.5;;;;;;;27.38;58.55371;98585;;;;
2021/07/23 14:37:34;;;;;;;7.2;4.6;;;;;;;28.42;56.77344;98582.01;;;;
2021/07/23 14:47:35;;;;;;;7.3;5.7;;;;;;;28.58;57.60938;98572.95;;;;
2021/07/23 14:57:36;;;;;;;7.6;6.7;;;;;;;27.78;58.94727;98571.3;;;;
2021/07/23 15:07:38;;;;;;;9;6.2;;;;;;;27.37;58.19824;98560.48;;;;
2021/07/23 15:17:40;;;;;;;6.4;4.6;;;;;;;26.57;64.4541;98563.2;;;;
2021/07/23 15:27:40;;;;;;;10.7;5.6;;;;;;;27.04;62.12305;98562.16;;;;
2021/07/23 15:37:41;;;;;;;10.2;5.7;;;;;;;27.95;64.05176;98570.98;;;;
2021/07/23 15:47:42;;;;;;;10.1;5.7;;;;;;;30.75;55.23438;98561.63;;;;
2021/07/23 15:57:44;;;;;;;8.8;4.6;;;;;;;28.97;53.84863;98554.3;;;;
2021/07/23 16:07:45;;;;;;;8.6;4.9;;;;;;;27.99;60.4502;98538.45;;;;
2021/07/23 16:17:46;;;;;;;8.2;4.9;;;;;;;28.16;59.68066;98538.56;;;;
2021/07/23 16:27:48;;;;;;;8.7;5.6;;;;;;;27.9;66.17578;98535.47;;;;
2021/07/23 16:37:49;;;;;;;9.3;5.1;;;;;;;30.43;59.50586;98532.73;;;;
2021/07/23 16:47:51;;;;;;;6.8;5.3;;;;;;;31.64;49.0498;98545.7;;;;
2021/07/23 16:57:57;;;;;;;9.1;5.3;;;;;;;30.68;50.95801;98540.36;;;;
2021/07/23 17:07:54;;;;;;;11.1;6.8;;;;;;;29.03;60.20801;98537.12;;;;
2021/07/23 17:17:58;;;;;;;8.3;6.2;;;;;;;27.45;75.04785;98534.3;;;;
2021/07/23 17:27:57;;;;;;;8.9;5.3;;;;;;;25.9;80.74902;98521.3;;;;
2021/07/23 17:37:58;;;;;;;7;5.9;;;;;;;25.02;90.29102;98524.83;;;;
2021/07/23 17:47:59;;;;;;;8.3;5.5;;;;;;;24.72;91.56445;98524.58;;;;
2021/07/23 17:58:00;;;;;;;8.1;6;;;;;;;24.3;95.41797;98528.33;;;;
2021/07/23 18:08:02;;;;;;;12.6;8.4;;;;;;;23.97;94.70215;98527.64;;;;
2021/07/23 18:18:02;;;;;;;15.2;6.6;;;;;;;23.52;97.3584;98521.05;;;;
2021/07/23 18:28:02;;;;;;;8.2;6.2;;;;;;;22.68;100;98524.48;;;;
2021/07/23 18:38:02;;;;;;;10.4;7.3;;;;;;;22.2;100;98526.64;;;;
2021/07/23 18:48:02;;;;;;;8.8;7.5;;;;;;;21.83;100;98524.05;;;;
2021/07/23 18:58:03;;;;;;;12.2;8;;;;;;;21.34;100;98531.95;;;;
2021/07/23 19:08:04;;;;;;;13.6;11.7;;;;;;;20.82;100;98544.77;;;;
2021/07/23 19:18:04;;;;;;;16.4;12;;;;;;;20.54;100;98549.94;;;;
2021/07/23 19:28:03;;;;;;;14.3;10.1;;;;;;;20.37;100;98558.73;;;;
2021/07/23 19:38:03;;;;;;;15.3;11.3;;;;;;;20.24;100;98554.59;;;;
2021/07/23 19:48:04;;;;;;;13.7;8.8;;;;;;;20.12;100;98557.58;;;;
2021/07/23 19:58:04;;;;;;;17.3;10.8;;;;;;;19.94;100;98562.81;;;;
2021/07/23 20:08:04;;;;;;;14.9;10.7;;;;;;;19.8;100;98563.4;;;;
2021/07/23 20:18:04;;;;;;;13.8;11.2;;;;;;;19.84;100;98558.77;;;;
2021/07/23 20:28:04;;;;;;;12;10.8;;;;;;;19.83;100;98575.54;;;;
2021/07/23 20:38:04;;;;;;;14.5;11.8;;;;;;;19.72;100;98575.38;;;;
2021/07/23 20:48:04;;;;;;;13.7;8.9;;;;;;;19.33;100;98568.49;;;;
2021/07/23 20:58:04;;;;;;;10;8.5;;;;;;;19.2;100;98578.8;;;;
2021/07/23 21:08:04;;;;;;;14.7;12.8;;;;;;;18.93;100;98579.88;;;;
2021/07/23 21:18:03;;;;;;;12.6;10;;;;;;;18.8;100;98575.73;;;;
2021/07/23 21:28:03;;;;;;;14.4;10.1;;;;;;;18.64;100;98575.05;;;;
2021/07/23 21:38:03;;;;;;;14.7;10;;;;;;;18.54;100;98584.58;;;;
2021/07/23 21:48:03;;;;;;;13.3;9.3;;;;;;;18.5;100;98578.26;;;;
2021/07/23 21:58:03;;;;;;;13.3;7.7;;;;;;;18.44;100;98575.01;;;;
2021/07/23 22:08:02;;;;;;;12.8;9.5;;;;;;;18.33;100;98584.11;;;;
2021/07/23 22:18:03;;;;;;;9.7;7.6;;;;;;;18.16;100;98584.53;;;;
2021/07/23 22:28:04;;;;;;;9.1;7.9;;;;;;;17.78;100;98583.31;;;;
2021/07/23 22:38:06;;;;;;;14;9.6;;;;;;;17.76;100;98577.44;;;;
2021/07/23 22:48:03;;;;;;;8.8;7.9;;;;;;;17.77;100;98587.17;;;;
2021/07/23 22:58:02;;;;;;;12.2;9.8;;;;;;;17.78;100;98585.24;;;;
2021/07/23 23:08:04;;;;;;;13.4;9.9;;;;;;;17.7;100;98573.38;;;;
2021/07/23 23:18:00;;;;;;;12.4;9;;;;;;;17.43;100;98579.7;;;;
2021/07/23 23:28:00;;;;;;;12.3;9.4;;;;;;;17.31;100;98566.98;;;;
2021/07/23 23:38:00;;;;;;;9.6;7.9;;;;;;;17.13;100;98565.75;;;;
2021/07/23 23:47:59;;;;;;;9.9;8.8;;;;;;;16.63;100;98554.68;;;;
2021/07/23 23:57:59;;;;;;;12.4;10.7;;;;;;;16.58;100;98550.3;;;;
